Aérodrome :
LOGIN :

S'inscrire | Disclaimer

   EN    FR    IT 

 










Légende :    VFR   VFR Marginal   IFR   IFR Intensif   IFR Très Intensif
Visi : 
Plafond : 
>= 8 km
>= 3000ft
5 à 8 km
1000 à 3000 ft
1500m à 5 km
500 à 1000 ft
800 à 1500m
200 à 500 ft
< 800m
< 200 ft
Symboles :   Orages  Brouillard  Fortes neiges  Fortes précipitations  Vent > 20 kt
SIGMETs :   Divers  Orages  Givrage  Turbulence  Onde Orograph.  Cendres Volcan.






- Altitude de l'aérodrome : 370 ft


EBBE - Beauvechain AB

DERNIER METAR :
  • 120213Z AUTO 22007KT 9999 FEW011/// OVC036/// 05/03 Q1003 BLU

METARs EXPIRÉS :
  • 120155Z AUTO 21008KT 9999 SCT011/// BKN037/// 05/03 Q1003 GRN
  • 120125Z AUTO 22008KT 9999 FEW010/// SCT014/// BKN038/// 05/03 Q1003 GRN
  • 120106Z AUTO 22006KT 9999 SCT011/// BKN038/// 05/04 Q1003 GRN
  • 120046Z AUTO 22006KT 9999 FEW011/// SCT014/// BKN031/// 05/04 Q1003 GRN
  • 120025Z AUTO 21009KT 9999 FEW012/// BKN030/// 05/04 Q1003 BLU
  • 112355Z AUTO 21009KT 9999 FEW011/// SCT015/// BKN021/// 05/04 Q1003 WHT
  • 112325Z AUTO 22007KT 9999 SCT010/// BKN013/// OVC030/// 05/04 Q1003 GRN

TAF TAF EBBE
Valide du 11 à 19h jusqu'au 12 à 07h UTC


111541Z 1119/1207 23010KT 9999 FEW025 SCT030 BKN220
BECMG 1121/1123 FEW008 SCT010 BKN015
TEMPO 1122/1207 23022G22KT 4000 -RADZ SCT005 BKN007



MET'MAP, la Météo Aéronautique d'un coup d'oeil ! - Copyright ORBIFLY Décembre 2007 - Disclaimer

ORBIFLY MET'MAP TEAM :

Programmation & Développement : Alexandra Zaïnal
Sur une idée originale de : Baudouin d'Aumeries
Assistance à la programmation : Marc-Olivier Méhu
Soutien technique & logistique : Manuel Goepfert

Contact : metmap@orbifly.com




SOURCES & CREDITS :

   NOAA